Time;durP1;ratioP1;P1;durP2;ratioP2;P2;SDS_P1;SDS_P2;PMS_P1;PMS_P2;Temp;Humidity;BMP_temperature;BMP_pressure;BME280_temperature;BME280_humidity;BME280_pressure;Samples;Min_cycle;Max_cycle;Signal;HPM_P1;HPM_P2
2023/07/21 00:00:58;;;;;;;;;;;24.60;58.30;;;;;;5081979;28;19976;-38
2023/07/21 00:03:24;;;;;;;;;;;24.60;58.40;;;;;;5082446;28;19908;-38
2023/07/21 00:05:50;;;;;;;;;;;24.60;58.50;;;;;;5081253;28;19928;-38
2023/07/21 00:08:16;;;;;;;;;;;24.60;58.00;;;;;;5084165;28;19967;-38
2023/07/21 00:10:45;;;;;;;;;;;24.50;58.10;;;;;;5086244;28;19913;-37
2023/07/21 00:13:11;;;;;;;;;;;24.50;57.80;;;;;;5085304;28;19912;-38
2023/07/21 00:15:37;;;;;;;;;;;24.50;57.80;;;;;;5081592;28;19919;-38
2023/07/21 00:18:03;;;;;;;;;;;24.40;57.60;;;;;;5080591;28;19912;-38
2023/07/21 00:20:29;;;;;;;;;;;24.40;57.60;;;;;;5085999;28;20339;-38
2023/07/21 00:22:55;;;;;;;;;;;24.40;57.60;;;;;;5085698;28;19912;-37
2023/07/21 00:25:21;;;;;;;;;;;24.30;57.40;;;;;;5085464;28;19923;-37
2023/07/21 00:27:47;;;;;;;;;;;24.30;57.50;;;;;;5085713;28;19912;-38
2023/07/21 00:30:13;;;;;;;;;;;24.30;57.70;;;;;;5085550;28;19951;-38
2023/07/21 00:32:39;;;;;;;;;;;24.30;57.90;;;;;;5085912;28;19909;-38
2023/07/21 00:35:06;;;;;;;;;;;24.20;57.80;;;;;;5085176;28;19912;-38
2023/07/21 00:37:32;;;;;;;;;;;24.20;57.90;;;;;;5085320;28;19968;-37
2023/07/21 00:39:58;;;;;;;;;;;24.10;57.80;;;;;;5085519;28;19912;-37
2023/07/21 00:42:24;;;;;;;;;;;24.10;57.90;;;;;;5085646;28;20439;-37
2023/07/21 00:44:50;;;;;;;;;;;24.10;58.30;;;;;;5083115;28;19923;-37
2023/07/21 00:47:16;;;;;;;;;;;24.10;58.00;;;;;;5084704;28;19912;-37
2023/07/21 00:49:43;;;;;;;;;;;24.00;58.00;;;;;;5085443;28;19983;-37
2023/07/21 00:52:17;;;;;;;;;;;24.00;57.70;;;;;;5084382;28;19913;-37
2023/07/21 00:54:43;;;;;;;;;;;24.00;57.60;;;;;;5068102;28;19912;-37
2023/07/21 00:57:09;;;;;;;;;;;23.90;57.60;;;;;;5084643;28;19912;-38
2023/07/21 00:59:35;;;;;;;;;;;23.90;57.50;;;;;;5085055;28;19912;-38
2023/07/21 01:02:02;;;;;;;;;;;23.90;57.50;;;;;;5084895;28;19934;-38
2023/07/21 01:04:30;;;;;;;;;;;23.80;57.50;;;;;;5084984;28;19912;-37
2023/07/21 01:06:56;;;;;;;;;;;23.80;57.40;;;;;;5084207;28;20482;-38
2023/07/21 01:09:22;;;;;;;;;;;23.80;57.50;;;;;;5085024;28;19928;-37
2023/07/21 01:11:48;;;;;;;;;;;23.70;57.40;;;;;;5081264;28;19908;-38
2023/07/21 01:14:14;;;;;;;;;;;23.70;57.50;;;;;;5052067;28;19939;-38
2023/07/21 01:16:43;;;;;;;;;;;23.70;57.90;;;;;;5084739;28;19912;-37
2023/07/21 01:19:11;;;;;;;;;;;23.70;57.90;;;;;;5084281;28;20273;-38
2023/07/21 01:21:40;;;;;;;;;;;23.60;57.70;;;;;;5085083;28;19912;-37
2023/07/21 01:24:19;;;;;;;;;;;23.60;57.80;;;;;;5066723;28;19919;-38
2023/07/21 01:26:44;;;;;;;;;;;23.60;58.10;;;;;;5066561;28;19920;-40
2023/07/21 01:29:10;;;;;;;;;;;23.50;58.00;;;;;;5084503;28;19916;-37
2023/07/21 01:31:36;;;;;;;;;;;23.50;57.90;;;;;;5084639;28;19919;-37
2023/07/21 01:34:03;;;;;;;;;;;23.50;59.70;;;;;;5082801;28;19912;-38
2023/07/21 01:36:29;;;;;;;;;;;23.50;61.30;;;;;;5084027;28;20003;-38
2023/07/21 01:38:55;;;;;;;;;;;23.50;61.70;;;;;;5066622;28;19952;-38
2023/07/21 01:41:20;;;;;;;;;;;23.40;61.60;;;;;;5066313;28;19912;-38
2023/07/21 01:43:47;;;;;;;;;;;23.40;61.80;;;;;;5084424;28;19961;-38
2023/07/21 01:46:13;;;;;;;;;;;23.40;61.90;;;;;;5082492;28;19920;-37
2023/07/21 01:48:39;;;;;;;;;;;23.40;62.10;;;;;;5084447;28;19988;-38
2023/07/21 01:51:05;;;;;;;;;;;23.40;62.40;;;;;;5083813;28;19915;-38
2023/07/21 01:53:31;;;;;;;;;;;23.40;62.60;;;;;;5084280;28;19916;-38
2023/07/21 01:55:57;;;;;;;;;;;23.40;62.90;;;;;;5075792;28;19950;-38
2023/07/21 01:58:23;;;;;;;;;;;23.40;63.20;;;;;;5083841;28;20467;-38
2023/07/21 02:00:49;;;;;;;;;;;23.40;63.40;;;;;;5065857;28;20482;-38
2023/07/21 02:03:15;;;;;;;;;;;23.40;63.70;;;;;;5065462;28;20496;-38
2023/07/21 02:05:41;;;;;;;;;;;23.40;63.90;;;;;;5056597;28;19928;-38
2023/07/21 02:08:09;;;;;;;;;;;23.40;64.20;;;;;;5082100;28;19924;-38
2023/07/21 02:10:36;;;;;;;;;;;23.40;64.30;;;;;;5083787;28;19912;-38
2023/07/21 02:13:04;;;;;;;;;;;23.50;64.60;;;;;;5082586;28;19912;-37
2023/07/21 02:15:30;;;;;;;;;;;23.50;64.80;;;;;;5082901;28;20012;-38
2023/07/21 02:17:56;;;;;;;;;;;23.50;65.00;;;;;;5080601;28;19956;-38
2023/07/21 02:20:22;;;;;;;;;;;23.50;65.00;;;;;;5083713;28;19919;-38
2023/07/21 02:22:48;;;;;;;;;;;23.50;65.10;;;;;;5083100;28;19908;-38
2023/07/21 02:25:15;;;;;;;;;;;23.50;65.00;;;;;;5081781;28;19927;-38
2023/07/21 02:27:41;;;;;;;;;;;23.50;65.10;;;;;;5083203;28;19912;-38
2023/07/21 02:30:08;;;;;;;;;;;23.50;65.10;;;;;;5082594;28;19912;-38
2023/07/21 02:32:34;;;;;;;;;;;23.50;65.00;;;;;;5083459;28;19908;-37
2023/07/21 02:34:59;;;;;;;;;;;23.50;65.10;;;;;;5083103;28;19943;-37
2023/07/21 02:37:25;;;;;;;;;;;23.50;65.10;;;;;;5082821;28;20385;-38
2023/07/21 02:39:51;;;;;;;;;;;23.60;65.20;;;;;;5083010;28;19908;-38
2023/07/21 02:42:17;;;;;;;;;;;23.60;65.30;;;;;;5082959;28;19912;-38
2023/07/21 02:44:43;;;;;;;;;;;23.60;65.30;;;;;;5083126;28;19980;-38
2023/07/21 02:47:09;;;;;;;;;;;23.60;65.30;;;;;;5082433;28;19938;-37
2023/07/21 02:49:35;;;;;;;;;;;23.60;65.40;;;;;;5079971;28;19912;-38
2023/07/21 02:52:01;;;;;;;;;;;23.60;65.50;;;;;;5082528;28;19919;-38
2023/07/21 02:54:27;;;;;;;;;;;23.60;65.60;;;;;;5083023;28;19917;-38
2023/07/21 02:56:53;;;;;;;;;;;23.60;65.50;;;;;;5082827;28;19912;-38
2023/07/21 02:59:20;;;;;;;;;;;23.70;65.70;;;;;;5074944;28;20357;-38
2023/07/21 03:01:54;;;;;;;;;;;23.70;65.60;;;;;;5064915;28;19920;-38
2023/07/21 03:04:24;;;;;;;;;;;23.70;65.60;;;;;;5082576;28;19966;-38
2023/07/21 03:06:50;;;;;;;;;;;23.70;65.60;;;;;;5082134;28;19936;-37
2023/07/21 03:09:16;;;;;;;;;;;23.70;65.70;;;;;;5082046;28;20281;-38
2023/07/21 03:11:42;;;;;;;;;;;23.70;65.60;;;;;;5082485;28;19916;-38
2023/07/21 03:14:09;;;;;;;;;;;23.70;65.70;;;;;;5079509;28;19912;-38
2023/07/21 03:16:36;;;;;;;;;;;23.70;65.70;;;;;;5082661;28;19943;-38
2023/07/21 03:19:02;;;;;;;;;;;23.70;65.70;;;;;;5078788;28;19919;-38
2023/07/21 03:21:27;;;;;;;;;;;23.70;65.70;;;;;;5082630;28;19912;-38
2023/07/21 03:23:53;;;;;;;;;;;23.70;66.10;;;;;;5082513;28;19912;-38
2023/07/21 03:26:20;;;;;;;;;;;23.80;66.20;;;;;;5082046;28;19976;-38
2023/07/21 03:28:46;;;;;;;;;;;23.80;66.50;;;;;;5082414;28;19908;-38
2023/07/21 03:31:12;;;;;;;;;;;23.80;66.80;;;;;;5082177;28;19970;-38
2023/07/21 03:33:38;;;;;;;;;;;23.80;67.80;;;;;;5082233;28;20663;-38
2023/07/21 03:36:04;;;;;;;;;;;23.80;67.10;;;;;;5081433;28;19916;-38
2023/07/21 03:38:35;;;;;;;;;;;23.80;67.30;;;;;;5081348;28;19913;-38
2023/07/21 03:41:01;;;;;;;;;;;23.80;67.30;;;;;;5082064;28;19915;-38
2023/07/21 03:43:27;;;;;;;;;;;23.80;66.70;;;;;;5086683;28;19908;-38
2023/07/21 03:45:59;;;;;;;;;;;23.80;66.50;;;;;;5086529;28;19991;-38
2023/07/21 03:48:25;;;;;;;;;;;23.80;66.40;;;;;;5079559;28;19912;-38
2023/07/21 03:50:55;;;;;;;;;;;23.80;66.30;;;;;;5086070;28;19916;-38
2023/07/21 03:53:21;;;;;;;;;;;23.80;66.30;;;;;;5086235;28;20459;-38
2023/07/21 03:55:47;;;;;;;;;;;23.80;66.30;;;;;;5086478;28;19912;-38
2023/07/21 03:58:13;;;;;;;;;;;23.80;66.30;;;;;;5085726;28;19972;-38
2023/07/21 04:00:42;;;;;;;;;;;23.80;66.30;;;;;;5086277;28;19908;-38
2023/07/21 04:03:08;;;;;;;;;;;23.80;66.30;;;;;;5086007;28;19912;-38
2023/07/21 04:05:34;;;;;;;;;;;23.80;66.40;;;;;;5085320;28;19987;-38
2023/07/21 04:08:00;;;;;;;;;;;23.80;66.60;;;;;;5085670;28;19912;-38
2023/07/21 04:10:26;;;;;;;;;;;23.80;66.80;;;;;;5086348;28;20031;-38
2023/07/21 04:12:52;;;;;;;;;;;23.90;67.00;;;;;;5085650;28;19912;-38
2023/07/21 04:15:18;;;;;;;;;;;23.90;67.20;;;;;;5086061;28;19948;-38
2023/07/21 04:17:44;;;;;;;;;;;23.90;67.50;;;;;;5081263;28;19916;-38
2023/07/21 04:20:10;;;;;;;;;;;23.90;67.60;;;;;;5085687;28;20055;-38
2023/07/21 04:22:36;;;;;;;;;;;23.90;67.90;;;;;;5085738;28;19916;-38
2023/07/21 04:25:02;;;;;;;;;;;23.90;67.60;;;;;;5085482;28;19912;-38
2023/07/21 04:27:31;;;;;;;;;;;23.80;67.00;;;;;;5084526;28;19912;-38
2023/07/21 04:29:59;;;;;;;;;;;23.90;66.90;;;;;;5085341;28;20452;-38
2023/07/21 04:32:25;;;;;;;;;;;23.90;66.80;;;;;;5085155;28;19912;-38
2023/07/21 04:34:51;;;;;;;;;;;23.90;66.90;;;;;;5085563;28;19934;-38
2023/07/21 04:37:17;;;;;;;;;;;23.90;67.00;;;;;;5085462;28;19924;-38
2023/07/21 04:39:42;;;;;;;;;;;23.90;67.00;;;;;;5085619;28;19915;-38
2023/07/21 04:42:09;;;;;;;;;;;23.90;67.00;;;;;;5084945;28;19934;-39
2023/07/21 04:44:35;;;;;;;;;;;23.90;67.00;;;;;;5085604;28;19912;-38
2023/07/21 04:47:04;;;;;;;;;;;23.90;67.10;;;;;;5085073;28;20257;-39
2023/07/21 04:49:30;;;;;;;;;;;23.90;67.10;;;;;;5085550;28;19912;-38
2023/07/21 04:51:58;;;;;;;;;;;23.90;67.20;;;;;;5084851;28;19908;-38
2023/07/21 04:54:24;;;;;;;;;;;23.90;67.40;;;;;;5076912;28;19912;-38
2023/07/21 04:56:52;;;;;;;;;;;23.90;67.50;;;;;;5083107;28;19908;-38
2023/07/21 04:59:18;;;;;;;;;;;23.90;67.60;;;;;;5085027;28;19918;-38
2023/07/21 05:01:45;;;;;;;;;;;23.90;67.70;;;;;;5068022;28;20003;-38
2023/07/21 05:04:11;;;;;;;;;;;23.90;67.80;;;;;;5084675;28;19920;-38
2023/07/21 05:06:37;;;;;;;;;;;23.90;67.60;;;;;;5084767;28;19946;-38
2023/07/21 05:09:03;;;;;;;;;;;23.90;67.50;;;;;;5084103;28;20007;-38
2023/07/21 05:11:28;;;;;;;;;;;23.90;68.10;;;;;;5085320;28;19913;-38
2023/07/21 05:13:56;;;;;;;;;;;23.90;67.20;;;;;;5084507;28;19912;-39
2023/07/21 05:16:22;;;;;;;;;;;23.90;67.20;;;;;;5066996;28;19908;-38
2023/07/21 05:18:48;;;;;;;;;;;23.90;67.20;;;;;;5080819;28;19931;-38
2023/07/21 05:21:15;;;;;;;;;;;23.90;67.20;;;;;;5085152;28;19913;-38
2023/07/21 05:23:41;;;;;;;;;;;23.90;67.20;;;;;;5080956;28;19919;-38
2023/07/21 05:26:07;;;;;;;;;;;23.90;68.00;;;;;;5084327;28;19987;-38
2023/07/21 05:28:34;;;;;;;;;;;23.90;67.40;;;;;;5084343;28;19919;-38
2023/07/21 05:31:00;;;;;;;;;;;23.90;67.60;;;;;;5084188;28;19909;-38
2023/07/21 05:33:26;;;;;;;;;;;23.90;67.90;;;;;;5084202;28;19961;-38
2023/07/21 05:35:52;;;;;;;;;;;23.90;68.30;;;;;;5084115;28;19912;-38
2023/07/21 05:38:18;;;;;;;;;;;23.90;68.40;;;;;;5084443;28;19916;-38
2023/07/21 05:40:44;;;;;;;;;;;23.90;68.60;;;;;;5084432;28;20527;-38
2023/07/21 05:43:10;;;;;;;;;;;23.90;68.60;;;;;;5082038;28;19999;-38
2023/07/21 05:45:39;;;;;;;;;;;23.90;68.60;;;;;;5083814;28;19995;-38
2023/07/21 05:48:05;;;;;;;;;;;23.90;68.60;;;;;;5081854;28;19974;-38
2023/07/21 05:50:34;;;;;;;;;;;23.90;68.40;;;;;;5084394;28;19916;-38
2023/07/21 05:53:00;;;;;;;;;;;23.90;67.90;;;;;;5083667;28;19916;-37
2023/07/21 05:55:27;;;;;;;;;;;23.90;67.70;;;;;;5084270;28;19913;-38
2023/07/21 05:57:53;;;;;;;;;;;23.90;67.70;;;;;;5083982;28;19913;-38
2023/07/21 06:00:19;;;;;;;;;;;23.90;67.60;;;;;;5082800;28;20022;-38
2023/07/21 06:02:45;;;;;;;;;;;23.90;67.60;;;;;;5083971;28;19963;-38
2023/07/21 06:05:12;;;;;;;;;;;23.90;67.60;;;;;;5083515;28;19931;-38
2023/07/21 06:07:42;;;;;;;;;;;23.90;67.70;;;;;;5083495;28;19971;-38
2023/07/21 06:10:08;;;;;;;;;;;23.90;67.70;;;;;;5083054;28;19969;-38
2023/07/21 06:12:34;;;;;;;;;;;23.90;68.00;;;;;;5082496;28;20057;-38
2023/07/21 06:15:00;;;;;;;;;;;23.90;68.40;;;;;;5065607;28;19909;-38
2023/07/21 06:17:26;;;;;;;;;;;23.90;68.80;;;;;;5083751;28;19912;-38
2023/07/21 06:19:52;;;;;;;;;;;23.90;68.90;;;;;;5083202;28;19908;-38
2023/07/21 06:22:18;;;;;;;;;;;23.90;68.80;;;;;;5083138;28;19923;-38
2023/07/21 06:24:44;;;;;;;;;;;23.90;68.70;;;;;;5083278;28;19919;-38
2023/07/21 06:27:12;;;;;;;;;;;23.90;68.80;;;;;;5083546;28;19916;-38
2023/07/21 06:29:38;;;;;;;;;;;23.90;68.80;;;;;;5083709;28;20455;-38
2023/07/21 06:32:04;;;;;;;;;;;23.90;68.70;;;;;;5083244;28;19908;-38
2023/07/21 06:34:30;;;;;;;;;;;23.90;68.60;;;;;;5083164;28;20367;-38
2023/07/21 06:36:55;;;;;;;;;;;23.90;68.30;;;;;;5083085;28;19951;-38
2023/07/21 06:39:22;;;;;;;;;;;23.90;68.20;;;;;;5083493;28;20288;-38
2023/07/21 06:41:48;;;;;;;;;;;23.90;68.20;;;;;;5083483;28;19912;-38
2023/07/21 06:44:14;;;;;;;;;;;23.90;68.10;;;;;;5082575;28;19912;-38
2023/07/21 06:46:44;;;;;;;;;;;23.90;68.10;;;;;;5080783;28;19928;-38
2023/07/21 06:49:10;;;;;;;;;;;23.90;68.10;;;;;;5082869;28;19913;-38
2023/07/21 06:51:36;;;;;;;;;;;23.90;68.20;;;;;;5083414;28;20418;-38
2023/07/21 06:54:08;;;;;;;;;;;23.90;68.50;;;;;;5075466;28;19912;-37
2023/07/21 06:56:34;;;;;;;;;;;23.90;68.90;;;;;;5083130;28;19908;-38
2023/07/21 06:59:00;;;;;;;;;;;23.90;69.00;;;;;;5082895;28;19912;-38
2023/07/21 07:01:26;;;;;;;;;;;23.90;69.10;;;;;;5082691;28;19958;-38
2023/07/21 07:03:51;;;;;;;;;;;23.90;69.00;;;;;;5081544;28;19912;-38
2023/07/21 07:06:17;;;;;;;;;;;23.90;69.10;;;;;;5082766;28;19920;-38
2023/07/21 07:08:43;;;;;;;;;;;23.90;69.20;;;;;;5082879;28;19920;-38
2023/07/21 07:11:11;;;;;;;;;;;23.90;69.10;;;;;;5082682;28;19908;-37
2023/07/21 07:13:37;;;;;;;;;;;23.90;69.10;;;;;;5082784;28;20291;-38
2023/07/21 07:16:03;;;;;;;;;;;23.90;69.00;;;;;;5076575;28;19940;-38
2023/07/21 07:21:14;;;;;;;;;;;23.90;68.80;;;;;;5082605;28;19962;-38
2023/07/21 07:23:40;;;;;;;;;;;23.90;68.70;;;;;;5081990;28;19920;-38
2023/07/21 07:26:06;;;;;;;;;;;23.90;68.70;;;;;;5081953;28;19927;-38
2023/07/21 07:28:32;;;;;;;;;;;23.90;68.70;;;;;;5082398;28;19912;-38
2023/07/21 07:31:02;;;;;;;;;;;23.90;68.70;;;;;;5082426;28;19919;-37
2023/07/21 07:33:28;;;;;;;;;;;23.90;68.70;;;;;;5076362;28;20035;-38
2023/07/21 07:35:54;;;;;;;;;;;23.90;68.90;;;;;;5078259;28;19908;-38
2023/07/21 07:38:23;;;;;;;;;;;23.90;69.20;;;;;;5081650;28;19943;-38
2023/07/21 07:40:49;;;;;;;;;;;23.90;69.20;;;;;;5082746;28;19908;-38
2023/07/21 07:43:15;;;;;;;;;;;23.90;69.20;;;;;;5082683;28;19916;-38
2023/07/21 07:45:41;;;;;;;;;;;23.90;69.30;;;;;;5081980;28;19927;-38
2023/07/21 07:48:07;;;;;;;;;;;23.90;69.30;;;;;;5082260;28;19916;-38
2023/07/21 07:50:40;;;;;;;;;;;23.90;69.40;;;;;;5080635;28;19918;-38
2023/07/21 07:53:06;;;;;;;;;;;23.90;69.40;;;;;;5082193;28;19935;-38
2023/07/21 07:55:38;;;;;;;;;;;23.80;69.30;;;;;;5077668;28;19913;-38
2023/07/21 07:58:05;;;;;;;;;;;23.80;69.40;;;;;;5080488;28;20370;-38
2023/07/21 08:00:32;;;;;;;;;;;23.80;69.20;;;;;;5082222;28;20011;-38
2023/07/21 08:02:58;;;;;;;;;;;23.80;69.10;;;;;;5082389;28;19912;-38
2023/07/21 08:05:24;;;;;;;;;;;23.80;69.00;;;;;;5073353;28;19932;-38
2023/07/21 08:07:49;;;;;;;;;;;23.80;69.10;;;;;;5080869;28;19923;-38
2023/07/21 08:10:15;;;;;;;;;;;23.80;69.00;;;;;;5081956;28;19915;-38
2023/07/21 08:12:41;;;;;;;;;;;23.80;69.00;;;;;;5082386;28;19912;-37
2023/07/21 08:15:07;;;;;;;;;;;23.80;69.10;;;;;;5081602;28;19921;-38
2023/07/21 08:17:37;;;;;;;;;;;23.80;69.20;;;;;;5082364;28;19971;-38
2023/07/21 08:20:03;;;;;;;;;;;23.80;69.40;;;;;;5082308;28;19965;-38
2023/07/21 08:22:29;;;;;;;;;;;23.80;69.50;;;;;;5081966;28;19912;-38
2023/07/21 08:24:55;;;;;;;;;;;23.80;69.60;;;;;;5080903;28;19912;-37
2023/07/21 08:27:20;;;;;;;;;;;23.80;69.70;;;;;;5081905;28;20006;-38
2023/07/21 08:29:46;;;;;;;;;;;23.80;69.70;;;;;;5085018;28;19916;-38
2023/07/21 08:32:13;;;;;;;;;;;23.80;69.90;;;;;;5085656;28;19919;-37
2023/07/21 08:34:39;;;;;;;;;;;23.80;69.80;;;;;;5085737;28;19944;-38
2023/07/21 08:37:05;;;;;;;;;;;23.80;69.80;;;;;;5081586;28;20532;-38
2023/07/21 08:39:31;;;;;;;;;;;23.80;69.70;;;;;;5084180;28;19923;-38
2023/07/21 08:41:57;;;;;;;;;;;23.80;69.50;;;;;;5083267;28;19924;-38
2023/07/21 08:44:23;;;;;;;;;;;23.80;69.50;;;;;;5085417;28;19912;-38
2023/07/21 08:46:49;;;;;;;;;;;23.80;69.50;;;;;;5067469;28;20607;-38
2023/07/21 08:49:18;;;;;;;;;;;23.80;69.50;;;;;;5085240;28;19947;-38
2023/07/21 08:51:44;;;;;;;;;;;23.80;69.40;;;;;;5085748;28;19962;-38
2023/07/21 08:54:09;;;;;;;;;;;23.80;69.40;;;;;;5084961;28;19908;-38
2023/07/21 08:56:35;;;;;;;;;;;23.80;69.50;;;;;;5067114;28;19947;-38
2023/07/21 08:59:01;;;;;;;;;;;23.80;69.60;;;;;;5085238;28;19912;-38
2023/07/21 09:01:27;;;;;;;;;;;23.80;69.80;;;;;;5085559;28;19920;-38
2023/07/21 09:03:53;;;;;;;;;;;23.80;69.80;;;;;;5085222;28;19979;-38
2023/07/21 09:06:19;;;;;;;;;;;23.80;69.90;;;;;;5084435;28;19943;-38
2023/07/21 09:08:46;;;;;;;;;;;23.80;70.00;;;;;;5085172;28;19927;-38
2023/07/21 09:11:12;;;;;;;;;;;23.80;70.10;;;;;;5084883;28;19912;-38
2023/07/21 09:13:38;;;;;;;;;;;23.80;70.10;;;;;;5084482;28;20444;-38
2023/07/21 09:16:07;;;;;;;;;;;23.80;70.10;;;;;;5082848;28;19908;-38
2023/07/21 09:18:33;;;;;;;;;;;23.80;70.10;;;;;;5085106;28;19919;-38
2023/07/21 09:20:59;;;;;;;;;;;23.80;70.00;;;;;;5084235;28;19937;-38
2023/07/21 09:23:26;;;;;;;;;;;23.80;70.00;;;;;;5078636;28;19935;-38
2023/07/21 09:26:01;;;;;;;;;;;23.80;69.90;;;;;;5084356;28;19920;-38
2023/07/21 09:28:42;;;;;;;;;;;23.70;69.70;;;;;;5078194;28;19916;-38
2023/07/21 09:31:08;;;;;;;;;;;23.80;69.90;;;;;;5084447;28;20658;-38
2023/07/21 09:33:40;;;;;;;;;;;23.80;69.80;;;;;;5084898;28;20003;-38
2023/07/21 09:36:06;;;;;;;;;;;23.80;69.80;;;;;;5079784;28;19912;-38
2023/07/21 09:38:33;;;;;;;;;;;23.80;69.90;;;;;;5084653;28;19990;-38
2023/07/21 09:41:19;;;;;;;;;;;23.80;70.00;;;;;;5083340;28;20655;-38
2023/07/21 09:43:45;;;;;;;;;;;23.80;70.10;;;;;;5084306;28;19931;-38
2023/07/21 09:46:11;;;;;;;;;;;23.70;70.20;;;;;;5064367;28;19927;-38
2023/07/21 09:48:37;;;;;;;;;;;23.70;70.40;;;;;;5084486;28;19913;-38
2023/07/21 09:51:04;;;;;;;;;;;23.70;70.40;;;;;;5084049;28;19916;-38
2023/07/21 09:53:50;;;;;;;;;;;23.70;70.50;;;;;;5066083;28;20661;-38
2023/07/21 09:56:15;;;;;;;;;;;23.70;70.40;;;;;;5075656;28;19919;-37
2023/07/21 09:59:02;;;;;;;;;;;23.70;70.50;;;;;;5079986;28;19975;-38
2023/07/21 10:01:28;;;;;;;;;;;23.70;70.50;;;;;;5076905;28;19938;-38
2023/07/21 10:03:55;;;;;;;;;;;23.70;70.40;;;;;;5083785;28;19908;-38
2023/07/21 10:06:22;;;;;;;;;;;23.70;70.20;;;;;;5065009;28;19927;-38
2023/07/21 10:08:48;;;;;;;;;;;23.70;70.20;;;;;;5084021;28;20308;-38
2023/07/21 10:11:14;;;;;;;;;;;23.70;70.30;;;;;;5065893;28;19920;-38
2023/07/21 10:13:47;;;;;;;;;;;23.70;70.30;;;;;;5084002;28;19934;-38
2023/07/21 10:16:13;;;;;;;;;;;23.70;70.30;;;;;;5082949;28;19912;-38
2023/07/21 10:18:57;;;;;;;;;;;23.70;70.30;;;;;;5083925;28;19999;-38
2023/07/21 10:21:23;;;;;;;;;;;23.70;70.30;;;;;;5083509;28;19912;-38
2023/07/21 10:23:51;;;;;;;;;;;23.70;70.50;;;;;;5083851;28;19908;-38
2023/07/21 10:26:16;;;;;;;;;;;23.70;70.70;;;;;;5083315;28;20015;-38
2023/07/21 10:28:43;;;;;;;;;;;23.70;70.80;;;;;;5083116;28;19912;-38
2023/07/21 10:31:24;;;;;;;;;;;23.70;70.80;;;;;;5082889;28;19908;-38
2023/07/21 10:34:09;;;;;;;;;;;23.70;70.80;;;;;;5082640;28;19958;-38
2023/07/21 10:36:41;;;;;;;;;;;23.70;70.80;;;;;;5072286;28;19958;-38
2023/07/21 10:39:10;;;;;;;;;;;23.70;71.00;;;;;;5064724;28;19987;-37
2023/07/21 10:41:38;;;;;;;;;;;23.70;70.90;;;;;;5063283;28;19988;-38
2023/07/21 10:44:09;;;;;;;;;;;23.70;70.90;;;;;;5063343;28;20485;-38
2023/07/21 10:46:55;;;;;;;;;;;23.70;70.70;;;;;;5067883;28;19927;-38
2023/07/21 10:49:21;;;;;;;;;;;23.70;70.70;;;;;;5061240;28;19913;-38
2023/07/21 10:51:47;;;;;;;;;;;23.70;70.60;;;;;;5062004;28;19924;-38
2023/07/21 10:54:14;;;;;;;;;;;23.70;70.50;;;;;;5061995;28;19912;-38
2023/07/21 10:56:41;;;;;;;;;;;23.70;70.50;;;;;;5067392;28;19909;-38
2023/07/21 10:59:10;;;;;;;;;;;23.70;70.60;;;;;;5068307;28;19918;-38
2023/07/21 11:01:40;;;;;;;;;;;23.70;70.50;;;;;;5063874;28;20397;-38
2023/07/21 11:04:06;;;;;;;;;;;23.70;70.60;;;;;;5067296;28;19908;-37
2023/07/21 11:06:32;;;;;;;;;;;23.70;70.80;;;;;;5071434;28;20049;-38
2023/07/21 11:08:58;;;;;;;;;;;23.70;71.00;;;;;;5063560;28;19927;-38
2023/07/21 11:11:24;;;;;;;;;;;23.70;71.10;;;;;;5083111;28;19912;-38
2023/07/21 11:13:50;;;;;;;;;;;23.70;71.10;;;;;;5080567;28;19919;-38
2023/07/21 11:16:16;;;;;;;;;;;23.70;71.20;;;;;;5077157;28;19908;-38
2023/07/21 11:18:42;;;;;;;;;;;23.70;71.10;;;;;;5082571;28;19912;-38
2023/07/21 11:21:08;;;;;;;;;;;23.70;71.20;;;;;;5082466;28;19912;-38
2023/07/21 11:23:34;;;;;;;;;;;23.70;71.20;;;;;;5082964;28;20034;-38
2023/07/21 11:26:00;;;;;;;;;;;23.70;71.20;;;;;;5082492;28;20304;-38
2023/07/21 11:28:27;;;;;;;;;;;23.70;71.10;;;;;;5082084;28;20371;-38
2023/07/21 11:30:53;;;;;;;;;;;23.70;71.00;;;;;;5082593;28;19912;-38
2023/07/21 11:33:19;;;;;;;;;;;23.70;70.90;;;;;;5082676;28;19947;-38
2023/07/21 11:35:46;;;;;;;;;;;23.70;70.90;;;;;;5078666;28;19912;-38
2023/07/21 11:38:12;;;;;;;;;;;23.70;70.90;;;;;;5065165;28;21019;-38
2023/07/21 11:40:38;;;;;;;;;;;23.70;70.90;;;;;;5062369;28;19912;-38
2023/07/21 11:43:06;;;;;;;;;;;23.70;70.90;;;;;;5065036;28;19909;-38
2023/07/21 11:45:35;;;;;;;;;;;23.70;71.00;;;;;;5063582;28;19984;-38
2023/07/21 11:48:19;;;;;;;;;;;23.70;71.10;;;;;;5065905;28;19997;-38
2023/07/21 11:50:52;;;;;;;;;;;23.70;71.20;;;;;;5060930;28;19912;-38
2023/07/21 11:53:18;;;;;;;;;;;23.70;71.30;;;;;;5064117;28;19947;-38
2023/07/21 11:55:44;;;;;;;;;;;23.70;71.30;;;;;;5065281;28;19919;-38
2023/07/21 11:58:13;;;;;;;;;;;23.70;71.40;;;;;;5063450;28;19912;-38
2023/07/21 12:00:41;;;;;;;;;;;23.70;71.40;;;;;;5064031;28;19972;-37
2023/07/21 12:03:06;;;;;;;;;;;23.70;71.40;;;;;;5068561;28;20364;-38
2023/07/21 12:05:33;;;;;;;;;;;23.70;71.40;;;;;;5066673;28;19928;-39
2023/07/21 12:07:59;;;;;;;;;;;23.70;71.30;;;;;;5083670;28;19920;-38
2023/07/21 12:10:26;;;;;;;;;;;23.70;71.30;;;;;;5079121;28;19912;-38
2023/07/21 12:12:52;;;;;;;;;;;23.70;71.20;;;;;;5086412;28;19943;-38
2023/07/21 12:15:18;;;;;;;;;;;23.70;71.10;;;;;;5085886;28;19913;-38
2023/07/21 12:17:44;;;;;;;;;;;23.70;71.10;;;;;;5086257;28;19930;-38
2023/07/21 12:20:12;;;;;;;;;;;23.70;71.10;;;;;;5084998;28;19939;-38
2023/07/21 12:22:39;;;;;;;;;;;23.70;71.10;;;;;;5086097;28;19967;-37
2023/07/21 12:25:05;;;;;;;;;;;23.70;71.10;;;;;;5085248;28;19912;-38
2023/07/21 12:27:31;;;;;;;;;;;23.70;71.10;;;;;;5086308;28;19909;-38
2023/07/21 12:29:57;;;;;;;;;;;23.70;71.30;;;;;;5085396;28;19919;-37
2023/07/21 12:32:22;;;;;;;;;;;23.70;71.40;;;;;;5085593;28;19935;-38
2023/07/21 12:34:48;;;;;;;;;;;23.70;71.60;;;;;;5086041;28;20416;-38
2023/07/21 12:37:14;;;;;;;;;;;23.70;71.70;;;;;;5081236;28;19917;-38
2023/07/21 12:39:40;;;;;;;;;;;23.70;71.60;;;;;;5085767;28;19912;-38
2023/07/21 12:42:07;;;;;;;;;;;23.70;71.70;;;;;;5085609;28;19908;-37
2023/07/21 12:44:33;;;;;;;;;;;23.70;71.70;;;;;;5080969;28;19908;-37
2023/07/21 12:46:59;;;;;;;;;;;23.70;71.60;;;;;;5083214;28;20387;-38
2023/07/21 12:49:25;;;;;;;;;;;23.70;71.70;;;;;;5085439;28;19934;-38
2023/07/21 12:51:51;;;;;;;;;;;23.70;71.40;;;;;;5067373;28;20356;-38
2023/07/21 12:54:17;;;;;;;;;;;23.70;71.20;;;;;;5084832;28;19917;-38
2023/07/21 12:56:43;;;;;;;;;;;23.70;71.20;;;;;;5085137;28;19912;-38
2023/07/21 12:59:08;;;;;;;;;;;23.70;71.10;;;;;;5085253;28;19981;-38
2023/07/21 13:01:34;;;;;;;;;;;23.70;71.10;;;;;;5085483;28;19912;-38
2023/07/21 13:04:00;;;;;;;;;;;23.70;71.10;;;;;;5085220;28;19999;-38
2023/07/21 13:06:27;;;;;;;;;;;23.70;71.10;;;;;;5081479;28;19920;-38
2023/07/21 13:08:53;;;;;;;;;;;23.70;71.20;;;;;;5076344;28;20022;-38
2023/07/21 13:11:18;;;;;;;;;;;23.70;71.50;;;;;;5083470;28;19919;-38
2023/07/21 13:13:46;;;;;;;;;;;23.70;71.60;;;;;;5084430;28;20015;-38
2023/07/21 13:16:12;;;;;;;;;;;23.70;71.90;;;;;;5084597;28;19932;-38
2023/07/21 13:18:38;;;;;;;;;;;23.70;71.90;;;;;;5085245;28;19966;-38
2023/07/21 13:21:04;;;;;;;;;;;23.70;71.90;;;;;;5084669;28;19908;-37
2023/07/21 13:23:30;;;;;;;;;;;23.70;72.00;;;;;;5082497;28;19912;-39
2023/07/21 13:25:56;;;;;;;;;;;23.70;72.10;;;;;;5084404;28;19928;-38
2023/07/21 13:28:22;;;;;;;;;;;23.70;72.10;;;;;;5066492;28;19913;-38
2023/07/21 13:30:48;;;;;;;;;;;23.70;71.90;;;;;;5085145;28;20280;-38
2023/07/21 13:33:14;;;;;;;;;;;23.70;71.80;;;;;;5076619;28;19958;-38
2023/07/21 13:35:40;;;;;;;;;;;23.70;71.80;;;;;;5084549;28;19920;-38
2023/07/21 13:38:06;;;;;;;;;;;23.80;71.90;;;;;;5084600;28;20318;-38
2023/07/21 13:40:32;;;;;;;;;;;23.80;72.10;;;;;;5084624;28;19965;-38
2023/07/21 13:42:58;;;;;;;;;;;23.80;72.20;;;;;;5083870;28;19912;-38
2023/07/21 13:45:24;;;;;;;;;;;23.80;72.30;;;;;;5084023;28;19996;-38
2023/07/21 13:47:50;;;;;;;;;;;23.80;72.30;;;;;;5084908;28;20319;-38
2023/07/21 13:50:15;;;;;;;;;;;23.80;72.30;;;;;;5082480;28;19916;-38
2023/07/21 13:52:41;;;;;;;;;;;23.80;72.40;;;;;;5082021;28;19927;-38
2023/07/21 13:55:07;;;;;;;;;;;23.80;72.40;;;;;;5084043;28;19916;-38
2023/07/21 13:57:33;;;;;;;;;;;23.80;72.50;;;;;;5082985;28;19917;-38
2023/07/21 13:59:59;;;;;;;;;;;23.80;72.40;;;;;;5082826;28;19919;-38
2023/07/21 14:02:26;;;;;;;;;;;23.80;72.60;;;;;;5076881;28;19908;-38
2023/07/21 14:04:52;;;;;;;;;;;23.90;72.60;;;;;;5084138;28;19908;-38
2023/07/21 14:07:18;;;;;;;;;;;23.80;72.50;;;;;;5084085;28;19986;-38
2023/07/21 14:09:45;;;;;;;;;;;23.90;72.60;;;;;;5083634;28;20748;-38
2023/07/21 14:12:11;;;;;;;;;;;23.90;72.70;;;;;;5083877;28;19912;-38
2023/07/21 14:14:37;;;;;;;;;;;23.90;73.00;;;;;;5083599;28;19920;-38
2023/07/21 14:17:03;;;;;;;;;;;23.90;73.10;;;;;;5083320;28;19912;-38